Etusivu
METAR-TAF:

METAR-TAF

Lentoasemat :

Foz do Iguaçu, Paraná, Brasilia

Leveyspiiri: 25-31S, Pituuspiiri: 054-35W, korkeus merenpinnasta: 180 m

Tämänhetkinen sää

Tämä raportti tehtiin 22 minuuttia sitten, kello 07.00 UTC
Tuuli 4 kn idästä
Lämpötila 20°C
Kosteus 94%
Ilmanpaine 1015 hPa
Näkyvyys 10 km tai enemmän
ei pilviä alle 1500 m:ssä eikä cumulonimbus-pilviä

METAR: SBFI 240700Z 09004KT CAVOK 20/19 Q1015

Aika: 04:22 (07:22 UTC)

Sääennuste

Tämä raportti tehtiin 5 tuntia ja 52 minuuttia sitten, kello 01.30 UTC
Ennuste voimassa 24. päivästä klo 06 UTC - 25. päivään klo 06 UTC
Tuuli 4 kn idästä/kaakosta
Näkyvyys 10 km tai enemmän
ei pilviä alle 1500 m:ssä eikä cumulonimbus-pilviä
Todennäköisyys 30% :
Ajoittain
24. päivästä klo 06 UTC - 24. päivään klo 11 UTC
Tuuli 3 kn kaakosta
Näkyvyys: 2000 m
utua

TAF: SBFI 240130Z 2406/2506 12004KT CAVOK TN18/2409Z TX26/2418Z PROB30 TEMPO 2406/2411 13003KT 2000 BR NSC RMK PEB

Säähavainnot ja -ennusteet yli 4000 lentoasemalta (METAR- ja TAF-raportit).

Käytössä olevat sääasemat on merkitty karttaan keltaisilla ja punaisilla pisteillä.

Aseta hiiri pisteen päälle nähdäksesi sääaseman nimen.

Klikkaa sitten nähdäksesi säähavainnot ja -ennusteet.

Kartan vaihtaminen: klikkaa mustalla rastilla varustettuja vihreitä pisteitä, niin voit zoomata sisään; viivalla varustettua vihreää pistettä, niin voit zoomata ulos tai vihreitä nuolia, niin pääset viereisille kartoille.


METAR-TAF: